Time;durP1;ratioP1;P1;durP2;ratioP2;P2;SDS_P1;SDS_P2;PMS_P1;PMS_P2;Temp;Humidity;BMP_temperature;BMP_pressure;BME280_temperature;BME280_humidity;BME280_pressure;Samples;Min_cycle;Max_cycle;Signal;HPM_P1;HPM_P2
2023/02/19 00:01:36;;;;;;;1999.90;999.90;;;;;;;8.54;100.00;98538.03;5119680;28;20464;-87
2023/02/19 00:04:04;;;;;;;1999.90;999.90;;;;;;;8.51;100.00;98538.59;5102449;28;20024;-86
2023/02/19 00:06:34;;;;;;;1999.90;999.90;;;;;;;8.37;100.00;98510.16;5118272;28;20016;-84
2023/02/19 00:08:59;;;;;;;1999.90;999.90;;;;;;;8.47;100.00;98518.38;5130003;28;20031;-87
2023/02/19 00:11:28;;;;;;;1999.90;999.90;;;;;;;8.55;100.00;98542.38;5129176;28;20028;-84
2023/02/19 00:13:56;;;;;;;1999.90;999.90;;;;;;;8.51;100.00;98530.41;5103515;28;20772;-90
2023/02/19 00:16:25;;;;;;;1999.90;999.90;;;;;;;8.51;100.00;98535.84;5113459;28;20035;-83
2023/02/19 00:18:52;;;;;;;1999.90;999.90;;;;;;;8.50;100.00;98531.47;5112823;28;20023;-90
2023/02/19 00:21:18;;;;;;;1999.90;999.90;;;;;;;8.48;100.00;98520.03;5115155;28;20075;-88
2023/02/19 00:23:48;;;;;;;1999.90;999.90;;;;;;;8.51;100.00;98521.41;5130631;28;20020;-87
2023/02/19 00:26:13;;;;;;;1999.90;999.90;;;;;;;8.48;100.00;98522.75;5112047;28;20041;-86
2023/02/19 00:28:39;;;;;;;1999.90;999.90;;;;;;;8.53;100.00;98517.31;5111968;28;20031;-83
2023/02/19 00:31:08;;;;;;;1999.90;999.90;;;;;;;8.57;100.00;98520.31;5109435;28;20115;-86
2023/02/19 00:33:34;;;;;;;1999.90;999.90;;;;;;;8.55;100.00;98511.59;5133511;28;20025;-86
2023/02/19 00:36:04;;;;;;;1999.90;999.90;;;;;;;8.56;100.00;98510.50;5132833;28;20019;-85
2023/02/19 00:38:30;;;;;;;1999.90;999.90;;;;;;;8.49;100.00;98515.38;5129927;28;20027;-90
2023/02/19 00:40:57;;;;;;;1999.90;999.90;;;;;;;8.48;100.00;98517.31;5129660;28;20027;-85
2023/02/19 00:43:23;;;;;;;1999.90;999.90;;;;;;;8.44;100.00;98505.28;5130482;28;20019;-88
2023/02/19 00:45:48;;;;;;;1999.90;999.90;;;;;;;8.49;100.00;98518.09;5131041;28;20024;-89
2023/02/19 00:48:13;;;;;;;1999.90;999.90;;;;;;;8.54;100.00;98515.41;5131892;28;20065;-87
2023/02/19 00:50:39;;;;;;;1999.90;999.90;;;;;;;8.56;100.00;98516.78;5132186;28;20031;-85
2023/02/19 00:53:04;;;;;;;1999.90;999.90;;;;;;;8.53;100.00;98511.03;5129742;28;20019;-84
2023/02/19 00:55:29;;;;;;;1999.90;999.90;;;;;;;8.54;100.00;98510.78;5124020;28;20115;-82
2023/02/19 00:57:55;;;;;;;1999.90;999.90;;;;;;;8.57;100.00;98517.59;5122594;28;20028;-84
2023/02/19 01:00:20;;;;;;;1999.90;999.90;;;;;;;8.61;100.00;98516.78;5127019;28;20016;-85
2023/02/19 01:02:46;;;;;;;1999.90;999.90;;;;;;;8.58;100.00;98514.59;5131630;28;20495;-82
2023/02/19 01:05:11;;;;;;;1999.90;999.90;;;;;;;8.60;100.00;98517.88;5133041;28;20004;-84
2023/02/19 01:07:36;;;;;;;1999.90;999.90;;;;;;;8.55;100.00;98512.41;5129988;28;20044;-85
2023/02/19 01:10:03;;;;;;;1999.90;999.90;;;;;;;8.56;100.00;98519.50;5132757;28;20437;-86
2023/02/19 01:12:28;;;;;;;1999.90;999.90;;;;;;;8.53;100.00;98508.31;5131224;28;20495;-86
2023/02/19 01:14:54;;;;;;;1999.90;999.90;;;;;;;8.49;100.00;98496.28;5131300;28;20023;-84
2023/02/19 01:17:20;;;;;;;1999.90;999.90;;;;;;;8.57;100.00;98517.59;5131176;28;20003;-85
2023/02/19 01:19:45;;;;;;;1999.90;999.90;;;;;;;8.58;100.00;98508.34;5130169;28;20067;-82
2023/02/19 01:22:11;;;;;;;1999.90;999.90;;;;;;;8.53;100.00;98500.94;5125644;28;20042;-84
2023/02/19 01:24:37;;;;;;;1999.90;999.90;;;;;;;8.58;100.00;98500.16;5129726;28;20016;-86
2023/02/19 01:27:02;;;;;;;1999.90;999.90;;;;;;;8.53;100.00;98492.78;5129124;28;20030;-84
2023/02/19 01:29:29;;;;;;;1999.90;999.90;;;;;;;8.59;100.00;98491.69;5126605;28;20039;-83
2023/02/19 01:31:54;;;;;;;1999.90;999.90;;;;;;;8.60;100.00;98492.53;5128039;28;20030;-83
2023/02/19 01:34:19;;;;;;;1999.90;999.90;;;;;;;8.57;100.00;98493.88;5126500;28;20023;-89
2023/02/19 01:36:45;;;;;;;1999.90;999.90;;;;;;;8.54;100.00;98483.50;5129174;28;20391;-82
2023/02/19 01:39:10;;;;;;;1999.90;999.90;;;;;;;8.53;100.00;98478.31;5128062;28;20019;-88
2023/02/19 01:41:38;;;;;;;1999.90;999.90;;;;;;;8.51;100.00;98473.16;5130781;28;20042;-84
2023/02/19 01:44:10;;;;;;;1999.90;999.90;;;;;;;8.54;100.00;98478.06;5131812;28;20048;-84
2023/02/19 01:46:40;;;;;;;1999.90;999.90;;;;;;;8.50;100.00;98468.78;5129167;28;20027;-84
2023/02/19 01:49:28;;;;;;;1999.90;999.90;;;;;;;8.56;100.00;98470.41;5132245;28;20028;-88
2023/02/19 01:52:04;;;;;;;1999.90;999.90;;;;;;;8.57;100.00;98469.34;5127723;28;20039;-86
2023/02/19 01:54:34;;;;;;;1999.90;999.90;;;;;;;8.54;100.00;98456.25;5125040;28;20035;-87
2023/02/19 01:57:03;;;;;;;1999.90;999.90;;;;;;;8.56;100.00;98467.69;5123799;28;20027;-90
2023/02/19 01:59:30;;;;;;;1999.90;999.90;;;;;;;8.57;100.00;98460.34;5133249;28;20023;-80
2023/02/19 02:01:55;;;;;;;1999.90;999.90;;;;;;;8.57;100.00;98455.72;5130297;28;20807;-84
2023/02/19 02:04:21;;;;;;;1999.90;999.90;;;;;;;8.59;100.00;98447.25;5119382;28;20015;-80
2023/02/19 02:06:50;;;;;;;1999.90;999.90;;;;;;;8.54;100.00;98448.06;5121609;28;20047;-84
2023/02/19 02:12:02;;;;;;;1999.90;999.90;;;;;;;8.54;100.00;98455.44;5122045;28;20031;-87
2023/02/19 02:14:32;;;;;;;1999.90;999.90;;;;;;;8.47;100.00;98449.41;5121959;28;20025;-87
2023/02/19 02:17:24;;;;;;;1999.90;999.90;;;;;;;8.47;100.00;98439.31;5124238;28;20091;-82
2023/02/19 02:20:13;;;;;;;1999.90;999.90;;;;;;;8.49;100.00;98442.59;5124095;28;20054;-85
2023/02/19 02:22:56;;;;;;;1999.90;999.90;;;;;;;8.45;100.00;98446.16;5121668;28;20046;-84
2023/02/19 02:25:57;;;;;;;1999.90;999.90;;;;;;;8.52;100.00;98443.97;5124206;28;20031;-87
2023/02/19 02:28:22;;;;;;;1999.90;999.90;;;;;;;8.56;100.00;98443.16;5126842;28;20044;-85
2023/02/19 02:30:55;;;;;;;1999.90;999.90;;;;;;;8.54;100.00;98444.53;5129974;28;20019;-83
2023/02/19 02:33:26;;;;;;;1999.90;999.90;;;;;;;8.52;100.00;98447.50;5129947;27;20060;-86
2023/02/19 02:35:57;;;;;;;1999.90;999.90;;;;;;;8.54;100.00;98431.72;5127704;28;20024;-83
2023/02/19 02:38:26;;;;;;;1999.90;999.90;;;;;;;8.54;100.00;98437.16;5126015;28;20016;-87
2023/02/19 02:40:53;;;;;;;1999.90;999.90;;;;;;;8.57;100.00;98439.34;5125702;28;20023;-83
2023/02/19 02:43:19;;;;;;;1999.90;999.90;;;;;;;8.56;100.00;98432.25;5126499;28;20419;-85
2023/02/19 02:45:44;;;;;;;1999.90;999.90;;;;;;;8.55;100.00;98436.06;5124351;28;20031;-88
2023/02/19 02:48:19;;;;;;;1999.90;999.90;;;;;;;8.53;100.00;98432.78;5128145;28;20031;-82
2023/02/19 02:51:12;;;;;;;1999.90;999.90;;;;;;;8.56;100.00;98426.78;5127651;28;20027;-84
2023/02/19 02:56:29;;;;;;;1999.90;999.90;;;;;;;8.54;100.00;98418.09;5130189;28;20122;-83
2023/02/19 02:58:57;;;;;;;1999.90;999.90;;;;;;;8.54;100.00;98418.09;5133464;28;20008;-82
2023/02/19 03:04:33;;;;;;;1999.90;999.90;;;;;;;8.53;100.00;98418.34;5131539;28;20039;-81
2023/02/19 03:07:06;;;;;;;1999.90;999.90;;;;;;;8.52;100.00;98398.44;5133818;28;20043;-86
2023/02/19 03:09:39;;;;;;;1999.90;999.90;;;;;;;8.51;100.00;98401.44;5130362;28;20019;-85
2023/02/19 03:20:38;;;;;;;1999.90;999.90;;;;;;;8.57;100.00;98395.72;5134154;28;20062;-84
2023/02/19 03:23:07;;;;;;;1999.90;999.90;;;;;;;8.48;100.00;98386.44;5134571;28;20082;-86
2023/02/19 03:29:21;;;;;;;1999.90;999.90;;;;;;;8.50;100.00;98387.00;5134566;28;20093;-83
2023/02/19 03:31:18;;;;;;;1999.90;999.90;;;;;;;8.52;100.00;98390.25;5132999;28;20032;-83
2023/02/19 03:33:48;;;;;;;1999.90;999.90;;;;;;;8.49;100.00;98382.63;5131948;28;20027;-85
2023/02/19 03:36:17;;;;;;;1999.90;999.90;;;;;;;8.47;100.00;98368.44;5133451;28;20020;-84
2023/02/19 03:38:58;;;;;;;1999.90;999.90;;;;;;;8.54;100.00;98376.38;5136409;28;20031;-82
2023/02/19 03:41:32;;;;;;;1999.90;999.90;;;;;;;8.53;100.00;98382.91;5136067;28;20091;-83
2023/02/19 03:44:00;;;;;;;1999.90;999.90;;;;;;;8.47;100.00;98373.91;5135129;28;20034;-84
2023/02/19 03:46:41;;;;;;;1999.90;999.90;;;;;;;8.45;100.00;98378.81;5137004;28;20028;-83
2023/02/19 03:49:34;;;;;;;1999.90;999.90;;;;;;;8.40;100.00;98365.16;5131635;28;20008;-87
2023/02/19 03:51:59;;;;;;;1999.90;999.90;;;;;;;8.43;100.00;98375.53;5108596;28;20090;-87
2023/02/19 03:54:34;;;;;;;1999.90;999.90;;;;;;;8.44;100.00;98379.06;5105235;28;20028;-86
2023/02/19 03:57:05;;;;;;;1999.90;999.90;;;;;;;8.54;100.00;98376.38;5105094;28;20503;-85
2023/02/19 03:59:40;;;;;;;1999.90;999.90;;;;;;;8.51;100.00;98374.19;5103510;28;20031;-83
2023/02/19 04:02:13;;;;;;;1999.90;999.90;;;;;;;8.49;100.00;98370.88;5103509;28;20067;-89
2023/02/19 04:04:51;;;;;;;1999.90;999.90;;;;;;;8.40;100.00;98362.44;5101271;28;20024;-85
2023/02/19 04:07:17;;;;;;;1999.90;999.90;;;;;;;8.52;100.00;98379.34;5102757;28;20173;-88
2023/02/19 04:09:47;;;;;;;1999.90;999.90;;;;;;;8.46;100.00;98361.34;5107967;28;20067;-88
2023/02/19 04:12:14;;;;;;;1999.90;999.90;;;;;;;8.57;100.00;98371.19;5104605;28;20020;-87
2023/02/19 04:15:05;;;;;;;1999.90;999.90;;;;;;;8.56;100.00;98366.81;5089763;28;20020;-85
2023/02/19 04:17:43;;;;;;;1999.90;999.90;;;;;;;8.52;100.00;98371.16;5080909;28;20085;-84
2023/02/19 04:20:12;;;;;;;1999.90;999.90;;;;;;;8.55;100.00;98361.66;5121247;28;20024;-85
2023/02/19 04:22:39;;;;;;;1999.90;999.90;;;;;;;8.52;100.00;98354.81;5084776;28;20020;-83
2023/02/19 04:25:05;;;;;;;1999.90;999.90;;;;;;;8.55;100.00;98359.72;5087934;28;20016;-85
2023/02/19 04:27:31;;;;;;;1999.90;999.90;;;;;;;8.52;100.00;98357.53;5086748;28;20042;-85
2023/02/19 04:29:57;;;;;;;1999.90;999.90;;;;;;;8.59;100.00;98360.00;5088030;28;20034;-85
2023/02/19 04:32:22;;;;;;;1999.90;999.90;;;;;;;8.51;100.00;98350.47;5096832;28;20040;-83
2023/02/19 04:34:47;;;;;;;1999.90;999.90;;;;;;;8.56;100.00;98350.47;5110960;28;20024;-84
2023/02/19 04:37:13;;;;;;;1999.90;999.90;;;;;;;8.64;100.00;98364.66;5110552;28;20482;-84
2023/02/19 04:39:38;;;;;;;1999.90;999.90;;;;;;;8.67;100.00;98356.75;5112906;28;20050;-85
2023/02/19 04:42:04;;;;;;;1999.90;999.90;;;;;;;8.53;100.00;98361.91;5113699;28;20027;-86
2023/02/19 04:44:29;;;;;;;1999.90;999.90;;;;;;;8.61;100.00;98352.38;5112826;28;20034;-85
2023/02/19 04:46:55;;;;;;;1999.90;999.90;;;;;;;8.63;100.00;98343.91;5111361;28;20066;-86
2023/02/19 04:49:20;;;;;;;1999.90;999.90;;;;;;;8.69;100.00;98351.00;5111279;28;20057;-82
2023/02/19 04:51:45;;;;;;;1999.90;999.90;;;;;;;8.64;100.00;98334.66;5107825;28;20027;-83
2023/02/19 04:54:11;;;;;;;1999.90;999.90;;;;;;;8.66;100.00;98343.38;5110346;28;20067;-83
2023/02/19 04:56:36;;;;;;;1999.90;999.90;;;;;;;8.63;100.00;98343.91;5109418;28;20024;-83
2023/02/19 04:59:02;;;;;;;1999.90;999.90;;;;;;;8.61;100.00;98346.94;5105960;28;20450;-84
2023/02/19 05:01:28;;;;;;;1999.90;999.90;;;;;;;8.59;100.00;98336.28;5108203;28;20028;-86
2023/02/19 05:03:53;;;;;;;1999.90;999.90;;;;;;;8.58;100.00;98333.84;5110868;28;20045;-84
2023/02/19 05:06:18;;;;;;;1999.90;999.90;;;;;;;8.52;100.00;98327.56;5106751;28;20031;-88
2023/02/19 05:08:44;;;;;;;1999.90;999.90;;;;;;;8.51;100.00;98333.28;5106557;28;20062;-85
2023/02/19 05:11:11;;;;;;;1999.90;999.90;;;;;;;8.57;100.00;98326.75;5113336;28;20032;-86
2023/02/19 05:13:39;;;;;;;1999.90;999.90;;;;;;;8.52;100.00;98322.09;5114926;28;20032;-84
2023/02/19 05:16:08;;;;;;;1999.90;999.90;;;;;;;8.69;100.00;98334.63;5115159;28;20035;-85
2023/02/19 05:18:34;;;;;;;1999.90;999.90;;;;;;;8.69;100.00;98337.38;5111884;28;20055;-84
2023/02/19 05:21:00;;;;;;;1999.90;999.90;;;;;;;8.69;100.00;98342.81;5111459;28;20020;-86
2023/02/19 05:23:27;;;;;;;1999.90;999.90;;;;;;;8.69;100.00;98334.63;5109219;28;20078;-85
2023/02/19 05:25:53;;;;;;;1999.90;999.90;;;;;;;8.64;100.00;98332.75;5106125;28;20031;-85
2023/02/19 05:28:19;;;;;;;1999.90;999.90;;;;;;;8.58;100.00;98328.38;5111019;28;20046;-86
2023/02/19 05:30:46;;;;;;;1999.90;999.90;;;;;;;8.57;100.00;98326.75;5114689;28;20028;-86
2023/02/19 05:33:13;;;;;;;1999.90;999.90;;;;;;;8.49;100.00;98311.75;5114952;28;19996;-88
2023/02/19 05:35:56;;;;;;;1999.90;999.90;;;;;;;8.42;100.00;98313.94;5113938;28;20021;-85
2023/02/19 05:38:22;;;;;;;1999.90;999.90;;;;;;;8.48;100.00;98321.03;5117043;28;20023;-84
2023/02/19 05:40:48;;;;;;;1999.90;999.90;;;;;;;8.46;100.00;98316.91;5117347;28;20064;-89
2023/02/19 05:43:14;;;;;;;1999.90;999.90;;;;;;;8.45;100.00;98318.03;5116480;28;20012;-87
2023/02/19 05:45:40;;;;;;;1999.90;999.90;;;;;;;8.46;100.00;98323.19;5115137;28;20019;-86
2023/02/19 05:48:06;;;;;;;1999.90;999.90;;;;;;;8.42;100.00;98340.38;5114094;28;20050;-84
2023/02/19 05:50:33;;;;;;;1999.90;999.90;;;;;;;8.34;100.00;98330.81;5113928;28;20035;-86
2023/02/19 05:53:00;;;;;;;1999.90;999.90;;;;;;;8.31;100.00;98315.00;5113966;28;20021;-82
2023/02/19 05:55:26;;;;;;;1999.90;999.90;;;;;;;8.31;100.00;98317.75;5113943;28;20054;-84
2023/02/19 05:57:51;;;;;;;1999.90;999.90;;;;;;;8.34;100.00;98319.91;5113608;28;20028;-87
2023/02/19 06:00:18;;;;;;;1999.90;999.90;;;;;;;8.27;100.00;98313.88;5114633;28;20035;-86
2023/02/19 06:02:44;;;;;;;1999.90;999.90;;;;;;;8.22;100.00;98327.50;5116531;28;20031;-84
2023/02/19 06:05:10;;;;;;;1999.90;999.90;;;;;;;8.16;100.00;98325.88;5117660;28;20028;-84
2023/02/19 06:07:38;;;;;;;1999.90;999.90;;;;;;;8.18;100.00;98331.84;5118159;28;20136;-85
2023/02/19 06:10:05;;;;;;;1999.90;999.90;;;;;;;8.19;100.00;98314.44;5117676;28;20023;-84
2023/02/19 06:12:30;;;;;;;1999.90;999.90;;;;;;;8.13;100.00;98314.69;5117147;28;20023;-86
2023/02/19 06:14:55;;;;;;;1999.90;999.90;;;;;;;8.20;100.00;98313.34;5117186;28;19992;-86
2023/02/19 06:17:21;;;;;;;1999.90;999.90;;;;;;;8.23;100.00;98320.97;5117707;28;20024;-89
2023/02/19 06:19:46;;;;;;;1999.90;999.90;;;;;;;8.20;100.00;98324.25;5116933;28;20377;-84
2023/02/19 06:22:13;;;;;;;1999.90;999.90;;;;;;;8.16;100.00;98306.81;5117362;28;20079;-86
2023/02/19 06:24:38;;;;;;;1999.90;999.90;;;;;;;8.15;100.00;98307.06;5118124;28;20035;-87
2023/02/19 06:27:07;;;;;;;1999.90;999.90;;;;;;;8.21;100.00;98317.69;5117322;28;20001;-85
2023/02/19 06:29:33;;;;;;;1999.90;999.90;;;;;;;8.19;100.00;98321.78;5117168;28;20028;-82
2023/02/19 06:31:59;;;;;;;1999.90;999.90;;;;;;;8.15;100.00;98324.22;5117558;28;20016;-83
2023/02/19 06:34:25;;;;;;;1999.90;999.90;;;;;;;8.23;100.00;98323.72;5116378;28;20007;-84
2023/02/19 06:36:51;;;;;;;1999.90;999.90;;;;;;;8.16;100.00;98312.25;5116812;28;20024;-85
2023/02/19 06:39:16;;;;;;;1999.90;999.90;;;;;;;8.16;100.00;98323.16;5117499;28;20012;-87
2023/02/19 06:41:41;;;;;;;1999.90;999.90;;;;;;;8.15;100.00;98326.13;5116629;28;20077;-86
2023/02/19 06:44:07;;;;;;;1999.90;999.90;;;;;;;8.13;100.00;98322.88;5116930;28;20031;-85
2023/02/19 06:46:33;;;;;;;1999.90;999.90;;;;;;;8.13;100.00;98329.13;5116466;28;20042;-85
2023/02/19 06:48:58;;;;;;;1999.90;999.90;;;;;;;8.08;100.00;98326.41;5116309;28;20024;-87
2023/02/19 06:51:26;;;;;;;1999.90;999.90;;;;;;;8.01;100.00;98325.84;5117159;28;20032;-84
2023/02/19 06:53:51;;;;;;;1999.90;999.90;;;;;;;8.03;100.00;98331.84;5117181;28;20522;-83
2023/02/19 06:56:27;;;;;;;1999.90;999.90;;;;;;;8.08;100.00;98338.09;5116693;28;20099;-85
2023/02/19 06:58:54;;;;;;;;;;;;;;;8.04;100.00;98341.66;5115760;28;20081;-88
2023/02/19 07:01:23;;;;;;;1999.90;999.90;;;;;;;8.10;100.00;98324.22;5116525;28;19912;-86
2023/02/19 07:03:48;;;;;;;1999.90;999.90;;;;;;;8.12;100.00;98319.31;5105734;28;20025;-84
2023/02/19 07:06:14;;;;;;;1999.90;999.90;;;;;;;8.09;100.00;98328.03;5095975;28;20028;-85
2023/02/19 07:08:39;;;;;;;1999.90;999.90;;;;;;;8.07;100.00;98341.94;5096091;28;20067;-88
2023/02/19 07:11:04;;;;;;;1999.90;999.90;;;;;;;8.09;100.00;98341.66;5097113;28;20088;-86
2023/02/19 07:13:30;;;;;;;1999.90;999.90;;;;;;;8.07;100.00;98343.84;5094593;28;20029;-86
2023/02/19 07:16:04;;;;;;;1999.90;999.90;;;;;;;8.04;100.00;98353.38;5096470;28;20005;-87
2023/02/19 07:18:30;;;;;;;1999.90;999.90;;;;;;;8.00;100.00;98356.91;5096112;28;20054;-86
2023/02/19 07:21:08;;;;;;;1999.90;999.90;;;;;;;8.18;100.00;98359.09;5096180;28;20043;-85
2023/02/19 07:23:34;;;;;;;1999.90;999.90;;;;;;;8.12;100.00;98371.09;5095713;28;20027;-86
2023/02/19 07:26:00;;;;;;;1999.90;999.90;;;;;;;8.12;100.00;98362.09;5094447;28;20036;-85
2023/02/19 07:28:25;;;;;;;1999.90;999.90;;;;;;;8.03;100.00;98368.06;5093678;28;20115;-82
2023/02/19 07:30:51;;;;;;;1999.90;999.90;;;;;;;8.17;100.00;98371.13;5094311;28;20021;-84
2023/02/19 07:33:17;;;;;;;1999.90;999.90;;;;;;;8.16;100.00;98366.75;5093527;28;20028;-83
2023/02/19 07:35:46;;;;;;;1999.90;999.90;;;;;;;8.29;100.00;98362.72;5082368;28;20143;-88
2023/02/19 07:38:15;;;;;;;1999.90;999.90;;;;;;;8.28;100.00;98353.72;5079926;28;20473;-83
2023/02/19 07:40:40;;;;;;;1999.90;999.90;;;;;;;8.36;100.00;98353.19;5079457;28;20409;-84
2023/02/19 07:43:05;;;;;;;1999.90;999.90;;;;;;;8.31;100.00;98350.44;5085311;28;20024;-88
2023/02/19 07:45:31;;;;;;;1999.90;999.90;;;;;;;8.47;100.00;98363.00;5086507;28;20556;-86
2023/02/19 07:47:56;;;;;;;1999.90;999.90;;;;;;;8.42;100.00;98365.72;5085920;28;20077;-81
2023/02/19 07:50:21;;;;;;;1999.90;999.90;;;;;;;8.42;100.00;98379.34;5087804;28;20750;-81
2023/02/19 07:52:47;;;;;;;1999.90;999.90;;;;;;;8.47;100.00;98376.63;5086233;28;20025;-83
2023/02/19 07:55:12;;;;;;;1999.90;999.90;;;;;;;8.42;100.00;98379.34;5085120;28;20025;-81
2023/02/19 07:57:37;;;;;;;1999.90;999.90;;;;;;;8.44;100.00;98374.44;5092326;28;20052;-87
2023/02/19 08:00:03;;;;;;;1999.90;999.90;;;;;;;8.57;100.00;98367.63;5094241;28;20032;-83
2023/02/19 08:05:12;;;;;;;1999.90;999.90;;;;;;;8.64;100.00;98378.28;5092553;28;20035;-84
2023/02/19 08:07:38;;;;;;;1999.90;999.90;;;;;;;8.72;100.00;98385.91;5093313;28;20029;-84
2023/02/19 08:15:42;;;;;;;1999.90;999.90;;;;;;;8.93;100.00;98387.53;5095057;28;20038;-85
2023/02/19 08:18:09;;;;;;;1999.90;999.90;;;;;;;9.04;100.00;98384.53;5093892;28;20020;-85
2023/02/19 08:20:35;;;;;;;1999.90;999.90;;;;;;;9.15;100.00;98379.88;5092836;28;20025;-84
2023/02/19 08:23:01;;;;;;;1999.90;999.90;;;;;;;9.18;100.00;98376.59;5093530;28;20099;-85
2023/02/19 08:25:27;;;;;;;1999.90;999.90;;;;;;;9.30;100.00;98376.31;5092583;28;20028;-86
2023/02/19 08:27:52;;;;;;;1999.90;999.90;;;;;;;9.35;100.00;98379.84;5093995;28;20036;-84
2023/02/19 08:30:18;;;;;;;1999.90;999.90;;;;;;;9.37;100.00;98383.09;5092706;28;20025;-85
2023/02/19 08:32:43;;;;;;;1999.90;999.90;;;;;;;9.46;100.00;98370.50;5104632;28;20027;-85
2023/02/19 08:35:09;;;;;;;1999.90;999.90;;;;;;;9.49;100.00;98375.41;5133236;28;20024;-86
2023/02/19 08:37:34;;;;;;;1999.90;999.90;;;;;;;9.53;100.00;98386.59;5133460;28;20032;-87
2023/02/19 08:39:59;;;;;;;1999.90;999.90;;;;;;;9.49;100.00;98396.47;5124749;28;20040;-86
2023/02/19 08:42:26;;;;;;;1999.90;999.90;;;;;;;9.57;100.00;98388.50;5110152;28;20028;-87
2023/02/19 08:44:52;;;;;;;1999.90;999.90;;;;;;;9.60;100.00;98392.59;5115154;28;20028;-85
2023/02/19 08:47:18;;;;;;;1999.90;999.90;;;;;;;9.61;100.00;98389.59;5124896;28;20062;-83
2023/02/19 08:49:44;;;;;;;1999.90;999.90;;;;;;;9.70;100.00;98392.56;5099375;28;20022;-72
2023/02/19 08:52:09;;;;;;;1999.90;999.90;;;;;;;9.77;100.00;98390.38;5092464;28;20028;-73
2023/02/19 08:54:34;;;;;;;1999.90;999.90;;;;;;;9.74;100.00;98388.19;5103001;28;20415;-73
2023/02/19 08:57:00;;;;;;;1999.90;999.90;;;;;;;9.77;100.00;98397.72;5093705;28;20020;-73
2023/02/19 08:59:27;;;;;;;1999.90;999.90;;;;;;;9.82;100.00;98397.69;5107305;28;20028;-75
2023/02/19 09:01:53;;;;;;;1999.90;999.90;;;;;;;9.86;100.00;98404.25;5100095;28;20023;-74
2023/02/19 09:04:18;;;;;;;1999.90;999.90;;;;;;;9.74;100.00;98398.28;5101651;28;20024;-76
2023/02/19 09:06:44;;;;;;;1999.90;999.90;;;;;;;9.88;100.00;98393.84;5114738;28;20503;-89
2023/02/19 09:09:09;;;;;;;1999.90;999.90;;;;;;;9.92;100.00;98400.41;5112159;28;20040;-84
2023/02/19 09:11:38;;;;;;;1999.90;999.90;;;;;;;9.98;100.00;98393.81;5113296;28;20040;-85
2023/02/19 09:14:06;;;;;;;1999.90;999.90;;;;;;;10.11;100.00;98401.41;5119281;28;20526;-84
2023/02/19 09:16:32;;;;;;;1999.90;999.90;;;;;;;10.10;100.00;98386.09;5109516;28;20024;-84
2023/02/19 09:18:57;;;;;;;1999.90;999.90;;;;;;;10.01;100.00;98390.50;5104405;28;20034;-80
2023/02/19 09:21:22;;;;;;;1999.90;999.90;;;;;;;10.06;100.00;98385.00;5107636;28;20027;-79
2023/02/19 09:23:48;;;;;;;1999.90;999.90;;;;;;;10.08;100.00;98396.50;5113786;28;20040;-87
2023/02/19 09:26:13;;;;;;;1999.90;999.90;;;;;;;10.06;100.00;98390.47;5113055;28;20027;-85
2023/02/19 09:28:40;;;;;;;1999.90;999.90;;;;;;;10.12;100.00;98387.44;5105289;28;20056;-87
2023/02/19 09:31:08;;;;;;;1999.90;999.90;;;;;;;10.13;100.00;98382.78;5102560;28;20031;-85
2023/02/19 09:33:34;;;;;;;1999.90;999.90;;;;;;;10.17;100.00;98390.19;5107649;28;20024;-87
2023/02/19 09:36:00;;;;;;;1999.90;999.90;;;;;;;10.21;100.00;98393.19;5106596;28;20014;-83
2023/02/19 09:38:26;;;;;;;1999.90;999.90;;;;;;;10.23;100.00;98390.16;5116821;28;20016;-87
2023/02/19 09:40:51;;;;;;;1999.90;999.90;;;;;;;10.13;100.00;98380.06;5118675;28;20023;-86
2023/02/19 09:43:22;;;;;;;1999.90;999.90;;;;;;;10.26;100.00;98382.22;5118644;28;20016;-87
2023/02/19 09:45:55;;;;;;;1999.90;999.90;;;;;;;10.32;100.00;98383.81;5117127;28;20024;-84
2023/02/19 09:48:21;;;;;;;1999.90;999.90;;;;;;;10.41;100.00;98376.63;5117711;28;20023;-87
2023/02/19 09:50:47;;;;;;;1999.90;999.90;;;;;;;10.43;100.00;98384.56;5126342;28;20053;-85
2023/02/19 09:53:18;;;;;;;1999.90;999.90;;;;;;;10.49;100.00;98378.78;5131548;28;20071;-85
2023/02/19 09:55:44;;;;;;;1999.90;999.90;;;;;;;10.65;99.49;98384.97;5105632;28;20117;-87
2023/02/19 09:58:31;;;;;;;1999.90;999.90;;;;;;;10.72;97.86;98388.19;5100901;28;20439;-88
2023/02/19 10:00:59;;;;;;;1999.90;999.90;;;;;;;10.73;98.37;98390.63;5121337;28;20024;-84
2023/02/19 10:03:40;;;;;;;1999.90;999.90;;;;;;;10.87;96.61;98390.00;5113781;28;20016;-88
2023/02/19 10:06:07;;;;;;;1999.90;999.90;;;;;;;10.84;96.17;98387.84;5113332;28;20016;-86
2023/02/19 10:08:34;;;;;;;1999.90;999.90;;;;;;;10.69;95.90;98380.53;5108971;28;20059;-84
2023/02/19 10:11:02;;;;;;;1999.90;999.90;;;;;;;10.74;96.04;98386.78;5112717;28;20024;-85
2023/02/19 10:13:34;;;;;;;1999.90;999.90;;;;;;;10.83;95.66;98388.94;5116612;28;20030;-86
2023/02/19 10:16:02;;;;;;;1999.90;999.90;;;;;;;10.93;95.53;98383.38;5117360;28;20056;-87
2023/02/19 10:18:36;;;;;;;1999.90;999.90;;;;;;;10.94;94.74;98371.28;5119191;28;20060;-86
2023/02/19 10:21:01;;;;;;;1999.90;999.90;;;;;;;10.74;95.40;98378.56;5113184;28;20111;-86
2023/02/19 10:23:27;;;;;;;1999.90;999.90;;;;;;;10.82;95.29;98376.34;5114872;28;20028;-88
2023/02/19 10:25:56;;;;;;;1999.90;999.90;;;;;;;10.74;94.57;98380.53;5119874;28;20081;-87
2023/02/19 10:28:26;;;;;;;1999.90;999.90;;;;;;;10.90;93.84;98383.94;5110456;28;20054;-77
2023/02/19 10:30:55;;;;;;;1999.90;999.90;;;;;;;10.99;92.89;98372.09;5110388;28;20130;-85
2023/02/19 10:33:20;;;;;;;1999.90;999.90;;;;;;;10.83;93.59;98376.06;5112924;28;20038;-86
2023/02/19 10:35:56;;;;;;;1999.90;999.90;;;;;;;10.81;93.59;98380.19;5110170;28;20043;-90
2023/02/19 10:38:37;;;;;;;1999.90;999.90;;;;;;;10.89;93.61;98371.34;5103415;28;20036;-83
2023/02/19 10:41:12;;;;;;;1999.90;999.90;;;;;;;11.08;92.46;98380.50;5108082;28;20104;-80
2023/02/19 10:43:41;;;;;;;1999.90;999.90;;;;;;;11.14;91.61;98368.38;5115222;28;20024;-86
2023/02/19 10:46:20;;;;;;;1999.90;999.90;;;;;;;11.38;89.67;98357.44;5116379;28;20032;-84
2023/02/19 10:48:51;;;;;;;1999.90;999.90;;;;;;;11.51;87.46;98368.53;5113348;28;20027;-84
2023/02/19 10:51:21;;;;;;;1999.90;999.90;;;;;;;11.61;86.60;98365.69;5116913;28;20098;-85
2023/02/19 10:53:49;;;;;;;1999.90;999.90;;;;;;;11.71;85.72;98360.13;5108283;28;20023;-80
2023/02/19 10:56:26;;;;;;;1999.90;999.90;;;;;;;11.57;85.87;98366.56;5102753;28;20020;-83
2023/02/19 10:58:51;;;;;;;1999.90;999.90;;;;;;;11.39;88.01;98367.31;5112481;28;20020;-84
2023/02/19 11:01:21;;;;;;;1999.90;999.90;;;;;;;11.49;87.26;98358.97;5104791;28;20032;-85
2023/02/19 11:03:49;;;;;;;1999.90;999.90;;;;;;;11.43;87.62;98360.97;5110743;28;20035;-84
2023/02/19 11:06:19;;;;;;;1999.90;999.90;;;;;;;11.15;88.71;98351.66;5116029;28;20024;-87
2023/02/19 11:08:51;;;;;;;1999.90;999.90;;;;;;;11.12;89.42;98346.75;5130634;28;20091;-87
2023/02/19 11:11:27;;;;;;;1999.90;999.90;;;;;;;11.09;90.20;98354.72;5132246;28;20032;-84
2023/02/19 11:13:58;;;;;;;1999.90;999.90;;;;;;;11.06;90.61;98349.81;5114590;28;20016;-87
2023/02/19 11:16:37;;;;;;;1999.90;999.90;;;;;;;11.14;89.93;98344.56;5114432;28;20369;-84
2023/02/19 11:19:02;;;;;;;1999.90;999.90;;;;;;;11.11;90.15;98336.09;5109893;28;20027;-85
2023/02/19 11:21:33;;;;;;;1999.90;999.90;;;;;;;11.20;89.11;98348.06;5112992;28;20024;-87
2023/02/19 11:24:02;;;;;;;1999.90;999.90;;;;;;;11.22;89.01;98349.41;5115690;28;20036;-85
2023/02/19 11:26:34;;;;;;;1999.90;999.90;;;;;;;11.18;89.39;98351.06;5094588;28;20457;-87
2023/02/19 11:29:10;;;;;;;1999.90;999.90;;;;;;;11.13;89.34;98347.56;5098045;28;20489;-79